createdAt,value
2022-11-23T00:01:16.332Z,9.17
2022-11-23T00:03:43.976Z,9.17
2022-11-23T00:06:10.667Z,9.21
2022-11-23T00:08:37.321Z,9.19
2022-11-23T00:11:04.006Z,9.17
2022-11-23T00:13:31.034Z,9.17
2022-11-23T00:15:57.528Z,9.15
2022-11-23T00:22:11.534Z,9.13
2022-11-23T00:24:38.047Z,9.14
2022-11-23T00:27:04.559Z,9.16
2022-11-23T00:29:31.321Z,9.17
2022-11-23T00:31:58.029Z,9.17
2022-11-23T00:34:24.531Z,9.17
2022-11-23T00:36:51.874Z,9.19
2022-11-23T00:39:18.428Z,9.19
2022-11-23T00:41:44.989Z,9.20
2022-11-23T00:44:11.682Z,9.17
2022-11-23T00:46:38.223Z,9.21
2022-11-23T00:49:05.153Z,9.19
2022-11-23T00:51:34.492Z,9.17
2022-11-23T00:54:02.358Z,9.16
2022-11-23T00:56:30.257Z,9.15
2022-11-23T00:58:58.878Z,9.13
2022-11-23T01:01:33.796Z,9.11
2022-11-23T01:04:02.549Z,9.13
2022-11-23T01:06:31.583Z,9.14
2022-11-23T01:09:08.529Z,9.13
2022-11-23T01:11:35.506Z,9.17
2022-11-23T01:14:02.477Z,9.18
2022-11-23T01:16:35.049Z,9.22
2022-11-23T01:19:04.382Z,9.19
2022-11-23T01:21:32.295Z,9.20
2022-11-23T01:23:59.081Z,9.19
2022-11-23T01:26:26.110Z,9.21
2022-11-23T01:28:52.631Z,9.21
2022-11-23T01:31:21.375Z,9.23
2022-11-23T01:33:52.289Z,9.26
2022-11-23T01:36:21.370Z,9.27
2022-11-23T01:38:48.278Z,9.26
2022-11-23T01:41:24.281Z,9.22
2022-11-23T01:43:52.760Z,9.21
2022-11-23T01:46:19.858Z,9.18
2022-11-23T01:48:55.557Z,9.17
2022-11-23T01:51:27.513Z,9.16
2022-11-23T01:53:57.600Z,9.15
2022-11-23T01:56:29.282Z,9.14
2022-11-23T01:58:58.899Z,9.15
2022-11-23T02:01:25.520Z,9.15
2022-11-23T02:03:53.488Z,9.15
2022-11-23T02:06:22.576Z,9.14
2022-11-23T02:08:49.328Z,9.13
2022-11-23T02:11:17.213Z,9.12
2022-11-23T02:13:47.567Z,9.12
2022-11-23T02:16:14.573Z,9.11
2022-11-23T02:18:48.345Z,9.12
2022-11-23T02:21:15.209Z,9.13
2022-11-23T02:23:44.482Z,9.13
2022-11-23T02:26:13.825Z,9.12
2022-11-23T02:28:46.509Z,9.11
2022-11-23T02:31:13.113Z,9.11
2022-11-23T02:33:40.501Z,9.11
2022-11-23T02:36:31.953Z,9.09
2022-11-23T02:39:01.918Z,9.08
2022-11-23T02:41:35.378Z,9.07
2022-11-23T02:44:04.276Z,9.07
2022-11-23T02:46:30.783Z,9.07
2022-11-23T02:48:57.305Z,9.07
2022-11-23T02:51:23.788Z,9.08
2022-11-23T02:53:50.286Z,9.09
2022-11-23T02:56:16.775Z,9.10
2022-11-23T02:58:43.281Z,9.11
2022-11-23T03:01:09.903Z,9.10
2022-11-23T03:03:36.475Z,9.06
2022-11-23T03:06:03.017Z,9.03
2022-11-23T03:08:29.585Z,9.02
2022-11-23T03:10:56.078Z,8.97
2022-11-23T03:13:22.604Z,8.94
2022-11-23T03:15:49.235Z,8.90
2022-11-23T03:18:15.758Z,8.85
2022-11-23T03:20:42.265Z,8.80
2022-11-23T03:23:08.769Z,8.75
2022-11-23T03:25:35.305Z,8.72
2022-11-23T03:28:01.827Z,8.65
2022-11-23T03:30:28.341Z,8.61
2022-11-23T03:32:54.881Z,8.57
2022-11-23T03:35:21.431Z,8.54
2022-11-23T03:37:47.908Z,8.51
2022-11-23T03:40:14.501Z,8.50
2022-11-23T03:42:41.775Z,8.49
2022-11-23T03:45:09.429Z,8.48
2022-11-23T03:47:36.943Z,8.44
2022-11-23T03:50:03.553Z,8.42
2022-11-23T03:52:30.072Z,8.39
2022-11-23T03:54:56.758Z,8.36
2022-11-23T03:57:23.249Z,8.33
2022-11-23T03:59:49.780Z,8.28
2022-11-23T04:02:16.354Z,8.26
2022-11-23T04:04:42.880Z,8.22
2022-11-23T04:07:09.516Z,8.22
2022-11-23T04:09:36.146Z,8.25
2022-11-23T04:12:02.758Z,8.24
2022-11-23T04:14:29.252Z,8.23
2022-11-23T04:16:55.753Z,8.20
2022-11-23T04:19:22.405Z,8.11
2022-11-23T04:21:48.940Z,8.04
2022-11-23T04:24:15.466Z,7.95
2022-11-23T04:26:42.118Z,7.86
2022-11-23T04:29:08.677Z,7.79
2022-11-23T04:31:35.159Z,7.78
2022-11-23T04:34:01.666Z,7.80
2022-11-23T04:36:28.248Z,7.82
2022-11-23T04:38:54.954Z,7.84
2022-11-23T04:41:22.210Z,7.88
2022-11-23T04:43:49.204Z,7.92
2022-11-23T04:46:16.136Z,7.95
2022-11-23T04:48:42.633Z,8.00
2022-11-23T04:51:09.544Z,8.02
2022-11-23T04:53:36.113Z,8.07
2022-11-23T04:56:02.937Z,8.09
2022-11-23T04:58:33.138Z,8.12
2022-11-23T05:01:01.164Z,8.15
2022-11-23T05:03:27.753Z,8.17
2022-11-23T05:05:54.399Z,8.20
2022-11-23T05:08:20.918Z,8.20
2022-11-23T05:10:47.466Z,8.17
2022-11-23T05:13:14.037Z,8.19
2022-11-23T05:15:40.585Z,8.18
2022-11-23T05:18:08.003Z,8.14
2022-11-23T05:20:34.598Z,8.15
2022-11-23T05:23:01.120Z,8.13
2022-11-23T05:25:27.825Z,8.11
2022-11-23T05:27:54.365Z,8.11
2022-11-23T05:30:21.718Z,8.09
2022-11-23T05:32:48.319Z,8.04
2022-11-23T05:35:15.150Z,8.00
2022-11-23T05:37:42.241Z,7.93
2022-11-23T05:40:09.662Z,7.86
2022-11-23T05:42:36.144Z,7.81
2022-11-23T05:45:05.310Z,7.79
2022-11-23T05:47:33.967Z,7.77
2022-11-23T05:50:00.522Z,7.78
2022-11-23T05:52:27.086Z,7.79
2022-11-23T05:54:53.813Z,7.79
2022-11-23T05:57:22.422Z,7.82
2022-11-23T05:59:49.557Z,8.02
2022-11-23T06:02:16.120Z,8.52
2022-11-23T06:04:42.686Z,9.01
2022-11-23T06:07:09.264Z,9.42
2022-11-23T06:09:36.183Z,9.56
2022-11-23T06:12:02.704Z,9.75
2022-11-23T06:14:29.310Z,9.88
2022-11-23T06:16:55.853Z,10.07
2022-11-23T06:19:22.478Z,10.27
2022-11-23T06:21:50.506Z,10.44
2022-11-23T06:24:17.343Z,10.60
2022-11-23T06:26:43.848Z,10.59
2022-11-23T06:29:10.548Z,10.50
2022-11-23T06:31:37.188Z,10.45
2022-11-23T06:34:03.714Z,10.26
2022-11-23T06:36:30.286Z,10.04
2022-11-23T06:38:56.860Z,9.95
2022-11-23T06:41:27.010Z,9.92
2022-11-23T06:43:57.522Z,9.78
2022-11-23T06:46:24.057Z,9.56
2022-11-23T06:48:50.579Z,9.40
2022-11-23T06:51:17.161Z,9.12
2022-11-23T06:53:44.119Z,8.91
2022-11-23T06:56:10.944Z,8.73
2022-11-23T06:58:37.848Z,8.66
2022-11-23T07:01:07.621Z,8.63
2022-11-23T07:03:35.311Z,8.62
2022-11-23T07:06:11.189Z,8.47
2022-11-23T07:08:43.697Z,8.31
2022-11-23T07:11:12.098Z,8.11
2022-11-23T07:13:39.128Z,7.95
2022-11-23T07:16:07.011Z,7.85
2022-11-23T07:18:33.945Z,7.77
2022-11-23T07:21:00.672Z,7.71
2022-11-23T07:23:27.266Z,7.71
2022-11-23T07:25:53.776Z,7.68
2022-11-23T07:28:20.323Z,7.67
2022-11-23T07:30:49.900Z,7.65
2022-11-23T07:33:16.474Z,7.65
2022-11-23T07:35:43.018Z,7.62
2022-11-23T07:38:09.745Z,7.61
2022-11-23T07:40:37.668Z,7.59
2022-11-23T07:43:05.957Z,7.55
2022-11-23T07:45:33.454Z,7.52
2022-11-23T07:48:02.207Z,7.49
2022-11-23T07:50:29.273Z,7.47
2022-11-23T07:52:56.271Z,7.45
2022-11-23T07:55:23.580Z,7.48
2022-11-23T07:57:54.535Z,7.52
2022-11-23T08:00:22.286Z,7.60
2022-11-23T08:03:11.788Z,7.69
2022-11-23T08:05:36.312Z,7.78
2022-11-23T08:08:03.454Z,7.83
2022-11-23T08:10:31.177Z,7.89
2022-11-23T08:13:03.311Z,7.97
2022-11-23T08:15:30.133Z,8.06
2022-11-23T08:18:02.614Z,8.12
2022-11-23T08:20:30.157Z,8.17
2022-11-23T08:22:57.465Z,8.20
2022-11-23T08:25:25.425Z,8.24
2022-11-23T08:28:00.052Z,8.24
2022-11-23T08:30:27.388Z,8.31
2022-11-23T08:32:53.998Z,8.37
2022-11-23T08:35:21.583Z,8.43
2022-11-23T08:37:48.573Z,8.45
2022-11-23T08:40:16.658Z,8.50
2022-11-23T08:42:47.552Z,8.56
2022-11-23T08:45:14.160Z,8.66
2022-11-23T08:47:40.707Z,8.77
2022-11-23T08:50:07.472Z,8.87
2022-11-23T08:52:33.989Z,8.90
2022-11-23T08:55:01.403Z,8.92
2022-11-23T08:57:28.523Z,8.90
2022-11-23T08:59:55.074Z,8.91
2022-11-23T09:02:21.584Z,8.92
2022-11-23T09:04:48.452Z,8.92
2022-11-23T09:07:15.381Z,8.95
2022-11-23T09:09:41.966Z,8.97
2022-11-23T09:12:08.678Z,8.97
2022-11-23T09:14:35.635Z,8.99
2022-11-23T09:17:03.309Z,8.98
2022-11-23T09:19:29.980Z,9.00
2022-11-23T09:21:58.008Z,8.97
2022-11-23T09:24:25.900Z,8.91
2022-11-23T09:26:52.578Z,8.87
2022-11-23T09:29:19.365Z,8.84
2022-11-23T09:31:45.891Z,8.81
2022-11-23T09:34:14.237Z,8.71
2022-11-23T09:36:40.777Z,8.65
2022-11-23T09:39:08.301Z,8.60
2022-11-23T09:42:01.510Z,8.51
2022-11-23T09:44:52.247Z,8.46
2022-11-23T09:47:43.623Z,8.44
2022-11-23T09:50:18.201Z,8.47
2022-11-23T09:52:48.124Z,8.45
2022-11-23T09:55:42.290Z,8.46
2022-11-23T09:58:17.245Z,8.48
2022-11-23T10:00:48.758Z,8.50
2022-11-23T10:03:17.477Z,8.54
2022-11-23T10:05:53.805Z,8.58
2022-11-23T10:08:46.108Z,8.62
2022-11-23T10:11:15.590Z,8.58
2022-11-23T10:13:47.164Z,8.67
2022-11-23T10:16:25.996Z,8.72
2022-11-23T10:18:58.640Z,8.81
2022-11-23T10:21:36.702Z,8.86
2022-11-23T10:24:10.063Z,8.93
2022-11-23T10:26:40.502Z,9.01
2022-11-23T10:29:26.950Z,9.06
2022-11-23T10:31:57.239Z,9.17
2022-11-23T10:34:35.234Z,9.24
2022-11-23T10:37:01.960Z,9.32
2022-11-23T10:39:28.660Z,9.35
2022-11-23T10:42:03.438Z,9.42
2022-11-23T10:44:32.084Z,9.49
2022-11-23T10:47:00.256Z,9.54
2022-11-23T10:49:29.685Z,9.63
2022-11-23T10:51:56.209Z,9.70
2022-11-23T10:54:27.846Z,9.76
2022-11-23T10:56:55.625Z,9.79
2022-11-23T10:59:28.036Z,9.81
2022-11-23T11:02:14.521Z,9.84
2022-11-23T11:04:41.472Z,9.90
2022-11-23T11:07:29.228Z,9.94
2022-11-23T11:10:04.113Z,10.00
2022-11-23T11:12:34.968Z,10.08
2022-11-23T11:15:11.835Z,10.18
2022-11-23T11:17:41.047Z,10.26
2022-11-23T11:20:31.742Z,10.31
2022-11-23T11:23:01.494Z,10.41
2022-11-23T11:25:31.097Z,10.47
2022-11-23T11:27:59.231Z,10.49
2022-11-23T11:30:32.863Z,10.46
2022-11-23T11:33:09.707Z,10.43
2022-11-23T11:35:41.078Z,10.46
2022-11-23T11:38:25.207Z,10.45
2022-11-23T11:40:52.572Z,10.49
2022-11-23T11:43:39.998Z,10.50
2022-11-23T11:46:31.426Z,10.53
2022-11-23T11:49:07.496Z,10.53
2022-11-23T11:52:12.772Z,10.53
2022-11-23T11:54:43.828Z,10.50
2022-11-23T11:57:21.504Z,10.43
2022-11-23T11:59:52.957Z,10.42
2022-11-23T12:02:24.869Z,10.42
2022-11-23T12:05:10.391Z,10.43
2022-11-23T12:07:38.971Z,10.48
2022-11-23T12:10:24.912Z,10.55
2022-11-23T12:12:52.200Z,10.63
2022-11-23T12:18:34.742Z,10.75
2022-11-23T12:21:26.473Z,10.82
2022-11-23T12:24:16.177Z,10.90
2022-11-23T12:27:17.852Z,10.94
2022-11-23T12:30:14.864Z,11.05
2022-11-23T12:33:01.040Z,11.19
2022-11-23T12:35:27.493Z,11.38
2022-11-23T12:38:10.871Z,11.45
2022-11-23T12:40:56.280Z,11.45
2022-11-23T12:43:35.246Z,11.41
2022-11-23T12:46:06.157Z,11.32
2022-11-23T12:48:57.304Z,11.24
2022-11-23T12:51:54.656Z,11.21
2022-11-23T12:54:58.879Z,11.20
2022-11-23T12:57:33.350Z,11.19
2022-11-23T13:00:07.197Z,11.17
2022-11-23T13:02:54.911Z,11.09
2022-11-23T13:05:46.125Z,11.05
2022-11-23T13:08:31.398Z,11.01
2022-11-23T13:11:19.675Z,10.98
2022-11-23T13:13:54.033Z,10.96
2022-11-23T13:16:32.911Z,10.94
2022-11-23T13:19:04.403Z,10.94
2022-11-23T13:21:36.542Z,10.88
2022-11-23T13:24:03.645Z,10.93
2022-11-23T13:26:33.929Z,10.97
2022-11-23T13:29:22.854Z,10.98
2022-11-23T13:32:09.426Z,10.99
2022-11-23T13:34:47.437Z,11.00
2022-11-23T13:37:14.222Z,11.02
2022-11-23T13:40:00.272Z,11.01
2022-11-23T13:42:27.834Z,11.03
2022-11-23T13:45:39.288Z,10.97
2022-11-23T13:48:09.029Z,10.94
2022-11-23T13:50:38.187Z,10.87
2022-11-23T13:53:27.065Z,10.75
2022-11-23T13:55:56.714Z,10.70
2022-11-23T13:58:23.463Z,10.62
2022-11-23T14:00:52.769Z,10.56
2022-11-23T14:03:41.014Z,10.43
2022-11-23T14:06:22.908Z,10.33
2022-11-23T14:08:59.099Z,10.21
2022-11-23T14:11:27.292Z,10.13
2022-11-23T14:14:05.510Z,10.04
2022-11-23T14:16:55.048Z,9.99
2022-11-23T14:19:50.240Z,9.97
2022-11-23T14:22:44.756Z,9.95
2022-11-23T14:25:29.446Z,9.89
2022-11-23T14:28:18.126Z,9.74
2022-11-23T14:31:29.230Z,9.66
2022-11-23T14:34:07.630Z,9.56
2022-11-23T14:36:46.645Z,9.49
2022-11-23T14:39:40.723Z,9.48
2022-11-23T14:42:17.211Z,9.45
2022-11-23T14:44:45.050Z,9.43
2022-11-23T14:47:12.231Z,9.43
2022-11-23T14:49:49.815Z,9.41
2022-11-23T14:52:29.109Z,9.44
2022-11-23T14:54:58.738Z,9.45
2022-11-23T14:57:29.525Z,9.46
2022-11-23T14:59:59.983Z,9.47
2022-11-23T15:02:40.668Z,9.51
2022-11-23T15:05:26.849Z,9.46
2022-11-23T15:07:59.653Z,9.51
2022-11-23T15:10:50.534Z,9.49
2022-11-23T15:13:24.413Z,9.53
2022-11-23T15:15:53.800Z,9.59
2022-11-23T15:18:29.053Z,9.60
2022-11-23T15:20:59.522Z,9.58
2022-11-23T15:23:50.517Z,9.58
2022-11-23T15:26:46.829Z,9.54
2022-11-23T15:29:29.894Z,9.50
2022-11-23T15:32:22.391Z,9.50
2022-11-23T15:34:43.358Z,9.48
2022-11-23T15:37:11.183Z,9.47
2022-11-23T15:39:38.694Z,9.49
2022-11-23T15:42:06.374Z,9.46
2022-11-23T15:44:33.293Z,9.42
2022-11-23T15:47:08.925Z,9.33
2022-11-23T15:49:40.435Z,9.27
2022-11-23T15:52:07.403Z,9.24
2022-11-23T15:54:38.732Z,9.20
2022-11-23T15:57:13.426Z,9.19
2022-11-23T15:59:50.346Z,9.21
2022-11-23T16:02:23.976Z,9.22
2022-11-23T16:05:09.168Z,9.23
2022-11-23T16:07:53.500Z,9.26
2022-11-23T16:10:28.605Z,9.28
2022-11-23T16:12:57.647Z,9.30
2022-11-23T16:15:27.454Z,9.31
2022-11-23T16:17:54.110Z,9.34
2022-11-23T16:20:24.008Z,9.33
2022-11-23T16:22:52.907Z,9.35
2022-11-23T16:25:36.167Z,9.35
2022-11-23T16:28:05.676Z,9.41
2022-11-23T16:30:41.318Z,9.40
2022-11-23T16:33:15.254Z,9.40
2022-11-23T16:35:41.939Z,9.43
2022-11-23T16:38:08.711Z,9.43
2022-11-23T16:40:35.243Z,9.43
2022-11-23T16:43:03.968Z,9.43
2022-11-23T16:45:31.847Z,9.44
2022-11-23T16:48:03.114Z,9.40
2022-11-23T16:50:32.277Z,9.37
2022-11-23T16:53:14.535Z,9.34
2022-11-23T16:55:43.734Z,9.30
2022-11-23T16:58:15.727Z,9.35
2022-11-23T17:00:42.949Z,9.38
2022-11-23T17:03:21.000Z,9.35
2022-11-23T17:05:48.346Z,9.37
2022-11-23T17:08:21.620Z,9.35
2022-11-23T17:10:50.987Z,9.34
2022-11-23T17:13:27.300Z,9.39
2022-11-23T17:15:54.500Z,9.42
2022-11-23T17:18:22.296Z,9.45
2022-11-23T17:20:48.869Z,9.51
2022-11-23T17:23:15.436Z,9.53
2022-11-23T17:25:42.089Z,9.55
2022-11-23T17:28:16.369Z,9.56
2022-11-23T17:30:43.618Z,9.60
2022-11-23T17:33:11.851Z,9.62
2022-11-23T17:35:39.334Z,9.66
2022-11-23T17:38:07.774Z,9.64
2022-11-23T17:40:34.359Z,9.66
2022-11-23T17:43:00.905Z,9.66
2022-11-23T17:45:27.515Z,9.63
2022-11-23T17:47:54.234Z,9.63
2022-11-23T17:50:20.862Z,9.66
2022-11-23T17:52:48.394Z,9.68
2022-11-23T17:55:15.925Z,9.75
2022-11-23T17:57:42.917Z,9.77
2022-11-23T18:00:21.501Z,9.79
2022-11-23T18:02:48.153Z,9.79
2022-11-23T18:05:21.185Z,9.77
2022-11-23T18:07:48.946Z,9.77
2022-11-23T18:10:15.954Z,9.78
2022-11-23T18:12:44.572Z,9.82
2022-11-23T18:15:12.010Z,9.86
2022-11-23T18:17:39.131Z,9.89
2022-11-23T18:20:08.249Z,9.91
2022-11-23T18:22:35.438Z,9.91
2022-11-23T18:25:02.027Z,9.92
2022-11-23T18:27:29.829Z,9.98
2022-11-23T18:29:56.582Z,10.00
2022-11-23T18:32:23.277Z,10.00
2022-11-23T18:34:49.837Z,10.02
2022-11-23T18:37:16.363Z,10.01
2022-11-23T18:39:42.872Z,9.98
2022-11-23T18:42:09.954Z,9.98
2022-11-23T18:44:36.458Z,9.96
2022-11-23T18:47:03.096Z,10.00
2022-11-23T18:49:29.636Z,10.03
2022-11-23T18:51:56.165Z,10.07
2022-11-23T18:54:22.651Z,10.06
2022-11-23T18:56:49.150Z,10.05
2022-11-23T18:59:42.079Z,10.03
2022-11-23T19:02:02.261Z,9.98
2022-11-23T19:04:32.564Z,9.99
2022-11-23T19:06:59.065Z,9.99
2022-11-23T19:09:25.573Z,10.00
2022-11-23T19:11:52.125Z,10.02
2022-11-23T19:14:18.646Z,9.97
2022-11-23T19:16:45.280Z,9.95
2022-11-23T19:19:12.564Z,9.91
2022-11-23T19:21:39.304Z,9.90
2022-11-23T19:24:07.259Z,9.88
2022-11-23T19:26:33.807Z,9.88
2022-11-23T19:29:00.419Z,9.86
2022-11-23T19:31:29.875Z,9.84
2022-11-23T19:34:00.761Z,9.79
2022-11-23T19:36:29.095Z,9.78
2022-11-23T19:38:57.310Z,9.78
2022-11-23T19:41:29.568Z,9.78
2022-11-23T19:43:58.332Z,9.77
2022-11-23T19:46:25.214Z,9.78
2022-11-23T19:48:51.900Z,9.77
2022-11-23T19:51:20.047Z,9.75
2022-11-23T19:53:49.044Z,9.72
2022-11-23T19:56:19.558Z,9.69
2022-11-23T19:58:47.017Z,9.68
2022-11-23T20:01:18.580Z,9.65
2022-11-23T20:03:48.996Z,9.65
2022-11-23T20:06:21.779Z,9.61
2022-11-23T20:08:57.208Z,9.57
2022-11-23T20:11:24.782Z,9.58
2022-11-23T20:13:51.711Z,9.59
2022-11-23T20:16:20.293Z,9.58
2022-11-23T20:18:49.117Z,9.53
2022-11-23T20:21:17.506Z,9.50
2022-11-23T20:23:45.373Z,9.49
2022-11-23T20:26:19.220Z,9.45
2022-11-23T20:28:50.196Z,9.43
2022-11-23T20:31:20.623Z,9.42
2022-11-23T20:33:50.475Z,9.38
2022-11-23T20:36:16.955Z,9.33
2022-11-23T20:38:43.515Z,9.30
2022-11-23T20:41:13.785Z,9.28
2022-11-23T20:43:40.558Z,9.29
2022-11-23T20:46:07.309Z,9.28
2022-11-23T20:48:35.810Z,9.26
2022-11-23T20:51:10.173Z,9.27
2022-11-23T20:53:37.277Z,9.31
2022-11-23T20:56:05.863Z,9.29
2022-11-23T20:58:32.717Z,9.31
2022-11-23T21:01:07.233Z,9.28
2022-11-23T21:03:35.134Z,9.30
2022-11-23T21:06:06.124Z,9.30
2022-11-23T21:08:35.029Z,9.34
2022-11-23T21:11:24.673Z,9.38
2022-11-23T21:14:06.561Z,9.42
2022-11-23T21:16:39.779Z,9.43
2022-11-23T21:19:08.489Z,9.43
2022-11-23T21:21:36.550Z,9.43
2022-11-23T21:24:04.014Z,9.44
2022-11-23T21:26:30.701Z,9.43
2022-11-23T21:28:57.825Z,9.41
2022-11-23T21:31:25.751Z,9.37
2022-11-23T21:33:54.184Z,9.33
2022-11-23T21:36:22.412Z,9.28
2022-11-23T21:38:48.995Z,9.23
2022-11-23T21:41:20.683Z,9.20
2022-11-23T21:43:52.677Z,9.17
2022-11-23T21:46:19.354Z,9.15
2022-11-23T21:48:45.902Z,9.11
2022-11-23T21:51:15.452Z,9.07
2022-11-23T21:53:42.080Z,9.01
2022-11-23T21:56:13.902Z,8.99
2022-11-23T21:58:40.802Z,8.96
2022-11-23T22:01:32.032Z,8.90
2022-11-23T22:04:01.478Z,8.90
2022-11-23T22:06:28.408Z,8.93
2022-11-23T22:08:56.692Z,8.94
2022-11-23T22:11:32.133Z,8.93
2022-11-23T22:14:07.396Z,8.95
2022-11-23T22:16:49.798Z,8.91
2022-11-23T22:19:17.090Z,8.90
2022-11-23T22:21:45.082Z,8.88
2022-11-23T22:24:19.559Z,8.87
2022-11-23T22:26:47.641Z,8.90
2022-11-23T22:29:14.411Z,8.90
2022-11-23T22:31:41.237Z,8.89
2022-11-23T22:34:11.356Z,8.86
2022-11-23T22:36:38.004Z,8.86
2022-11-23T22:39:06.479Z,8.87
2022-11-23T22:41:39.379Z,8.86
2022-11-23T22:44:07.942Z,8.84
2022-11-23T22:46:35.041Z,8.82
2022-11-23T22:49:02.028Z,8.80
2022-11-23T22:51:30.003Z,8.83
2022-11-23T22:53:58.591Z,8.83
2022-11-23T22:56:26.375Z,8.82
2022-11-23T22:58:53.498Z,8.81
2022-11-23T23:01:22.518Z,8.80
2022-11-23T23:03:55.866Z,8.76
2022-11-23T23:06:28.431Z,8.71
2022-11-23T23:08:57.461Z,8.68
2022-11-23T23:11:26.964Z,8.66
2022-11-23T23:13:53.702Z,8.63
2022-11-23T23:16:20.432Z,8.63
2022-11-23T23:18:47.017Z,8.60
2022-11-23T23:21:19.849Z,8.56
2022-11-23T23:23:48.177Z,8.54
2022-11-23T23:26:17.245Z,8.54
2022-11-23T23:28:44.037Z,8.52
2022-11-23T23:31:14.243Z,8.48
2022-11-23T23:33:40.941Z,8.44
2022-11-23T23:36:12.341Z,8.43
2022-11-23T23:38:39.456Z,8.40
2022-11-23T23:41:07.579Z,8.41
2022-11-23T23:43:34.597Z,8.46
2022-11-23T23:46:03.147Z,8.49
2022-11-23T23:48:32.190Z,8.52
2022-11-23T23:50:58.744Z,8.56
2022-11-23T23:53:25.308Z,8.61
2022-11-23T23:55:59.644Z,8.65
2022-11-23T23:58:26.317Z,8.68
